Record high temperature 100.8°F Record low temperature -75.5°F Record high gust 121.0 mph Record high average 61.8 mph Record daily rain 2.61 in. Record low windchill -106.6°F Record high barometer 31.889 in. Record low barometer 23.642 in.
Daily high pressure 30.279 in. Daily low pressure 30.070 in. Daily low windchill 42.5°F Daily high heat index 80.6°F Daily high gust speed 11.5 mph ESE Daily high average speed 7.4 mph SE
Weather Data
LAST READING AT TIME: 23:10 PM DATE: October 25 2014, time of next update: 11:20 pm
Current WeatherNight time/Dry Current Temperature 47.2°F (8.4°C), Apparent temp 44.9°F
Maximum Temperature (since midnight)83.3°F at: 2:42 PM Minimum Temperature (since midnight)44.0°F at: 3:46 AM
Average windspeed (ten minute)0.0 mph Wind Direction (ten minute)SE (135°)
Windchill Temperature 47.2°F Maximum Gust (last hour)0.0 mph at: 11:00 PM
Maximum Gust (since midnight)11.5 mph at: 3:36 PM Maximum 1 minute average (since midnight)7.4 mph at: 2:43 PM
Rainfall (last hour)0.00 in. (0.0 mm) Rainfall (since midnight)0.00 in. (0.0 mm) ---
Rainfall This month 1.73 in. (43.9 mm) Rainfall To date this year 9.05 in. (229.9 mm)
Maximum rain per minute (last hour)0.00 in/min Maximum rain per hour (last 6 hours)0.00 in/hour
Yesterdays rainfall 0.00 in DewPoint 29.5°F (Wet Bulb :40.4°F )
Humidity 50 %, Humidex 42.7°F Barometer corrected to msl30.072 in. (1018.4 hPa)
Pressure change -0.01 in. (last hour) Trend (last hour)STEADY
Pressure change (last 12 hours)-0.19 in Pressure change (last 6 hours)-0.06 in

This page is updated from recent data collected by a DAVIS WMII weather station Use the Reload or Refresh facility on your browser to retrieve the latest data.


Click here for the last 24 hour graph
Click here for the last 48 hour graph
Click here for the last 72 hour graph
Click here for the month to date graph


Weather report/warning/Metars

COLORADO SPRINGS MUNI, CO, United States (KCOS) 38-49N 104-43W 1856M
Oct 25, 2014 - 11:54 PM EDT / 2014.10.26 0354 UTC
Wind: from the E (090 degrees) at 7 MPH (6 KT):0
Visibility: 10 mile(s):0
Sky conditions: clear
Temperature: 60.1 F (15.6 C)
Dew Point: 23.0 F (-5.0 C)
Relative Humidity: 23%
Pressure (altimeter): 30.1 in. Hg (1019 hPa)
ob: KCOS 260354Z 09006KT 10SM CLR 16/M05 A3010 RMK AO2 SLP114 T01561050
cycle: 4
Air Force Academy, CO, United States (KAFF) 38-58N 104-49W 1999M
Oct 26, 2014 - 12:58 AM EDT / 2014.10.26 0458 UTC
Wind: from the N (010 degrees) at 14 MPH (12 KT):0
Visibility: 10 mile(s):0
Sky conditions: clear
Temperature: 45.9 F (7.7 C)
Dew Point: 25.2 F (-3.8 C)
Relative Humidity: 43%
Pressure (altimeter): 30.1 in. Hg (1019 hPa)
ob: KAFF 260458Z AUTO 01012KT 10SM CLR 08/M04 A3010 RMK AO2 SLP126 T00771038
cycle: 5
Fort Carson, CO, United States (KFCS) 38-42N 104-46W 1789M
Oct 25, 2014 - 11:58 PM EDT / 2014.10.26 0358 UTC
Wind: from the WNW (300 degrees) at 7 MPH (6 KT):0
Visibility: 10 mile(s):0
Sky conditions: clear
Temperature: 58.8 F (14.9 C)
Dew Point: 27.0 F (-2.8 C)
Relative Humidity: 29%
Pressure (altimeter): 30.07 in. Hg (1018 hPa)
ob: KFCS 260358Z AUTO 30006KT 10SM CLR 15/M03 A3007 RMK AO2 SLP142 T01491028
cycle: 4



The data is logged at two minute intervals, but there is data recorded every minute. Best viewed in 800 x 600 and True colour.

Use the RELOAD facility on your browser to retrieve the latest data.

Click here for a daily update of the averages/extremes to date for the month
Created by "Weather Display" software version 10.37R Build 78 at this start time/date 03:33 am 10/15/2014